sensor_id;sensor_type;location;lat;lon;timestamp;temperature;humidity
16736;DHT22;17990;49.548;9.730;2022-12-17T00:01:59;-8.50;99.90
16736;DHT22;17990;49.548;9.730;2022-12-17T00:04:44;-8.60;99.90
16736;DHT22;17990;49.548;9.730;2022-12-17T00:07:29;-8.60;99.90
16736;DHT22;17990;49.548;9.730;2022-12-17T00:10:14;-8.60;99.90
16736;DHT22;17990;49.548;9.730;2022-12-17T00:12:59;-8.70;99.90
16736;DHT22;17990;49.548;9.730;2022-12-17T00:15:49;-8.70;99.90
16736;DHT22;17990;49.548;9.730;2022-12-17T00:18:34;-8.80;99.90
16736;DHT22;17990;49.548;9.730;2022-12-17T00:21:19;-8.80;99.90
16736;DHT22;17990;49.548;9.730;2022-12-17T00:24:04;-8.80;99.90
16736;DHT22;17990;49.548;9.730;2022-12-17T00:26:51;-8.80;99.90
16736;DHT22;17990;49.548;9.730;2022-12-17T00:29:35;-8.90;99.90
16736;DHT22;17990;49.548;9.730;2022-12-17T00:32:20;-8.80;99.90
16736;DHT22;17990;49.548;9.730;2022-12-17T00:35:05;-8.90;99.90
16736;DHT22;17990;49.548;9.730;2022-12-17T00:37:49;-8.90;99.90
16736;DHT22;17990;49.548;9.730;2022-12-17T00:40:34;-9.00;99.90
16736;DHT22;17990;49.548;9.730;2022-12-17T00:43:20;-8.90;99.90
16736;DHT22;17990;49.548;9.730;2022-12-17T00:46:04;-8.90;99.90
16736;DHT22;17990;49.548;9.730;2022-12-17T00:48:49;-8.90;99.90
16736;DHT22;17990;49.548;9.730;2022-12-17T00:51:42;-8.90;99.90
16736;DHT22;17990;49.548;9.730;2022-12-17T00:54:26;-9.00;99.90
16736;DHT22;17990;49.548;9.730;2022-12-17T00:57:11;-9.00;99.90
16736;DHT22;17990;49.548;9.730;2022-12-17T00:59:57;-9.00;99.90
16736;DHT22;17990;49.548;9.730;2022-12-17T01:02:42;-9.10;99.90
16736;DHT22;17990;49.548;9.730;2022-12-17T01:05:26;-9.10;99.90
16736;DHT22;17990;49.548;9.730;2022-12-17T01:08:13;-9.10;99.90
16736;DHT22;17990;49.548;9.730;2022-12-17T01:10:58;-9.10;99.90
16736;DHT22;17990;49.548;9.730;2022-12-17T01:13:43;-9.10;99.90
16736;DHT22;17990;49.548;9.730;2022-12-17T01:16:32;-9.20;99.90
16736;DHT22;17990;49.548;9.730;2022-12-17T01:19:16;-9.20;99.90
16736;DHT22;17990;49.548;9.730;2022-12-17T01:22:01;-9.20;99.90
16736;DHT22;17990;49.548;9.730;2022-12-17T01:24:45;-9.20;99.90
16736;DHT22;17990;49.548;9.730;2022-12-17T01:27:30;-9.30;99.90
16736;DHT22;17990;49.548;9.730;2022-12-17T01:30:15;-9.30;99.90
16736;DHT22;17990;49.548;9.730;2022-12-17T01:33:01;-9.40;99.90
16736;DHT22;17990;49.548;9.730;2022-12-17T01:35:57;-9.40;99.90
16736;DHT22;17990;49.548;9.730;2022-12-17T01:38:42;-9.40;99.90
16736;DHT22;17990;49.548;9.730;2022-12-17T01:41:27;-9.40;99.90
16736;DHT22;17990;49.548;9.730;2022-12-17T01:44:44;-9.40;99.90
16736;DHT22;17990;49.548;9.730;2022-12-17T01:47:33;-9.40;99.90
16736;DHT22;17990;49.548;9.730;2022-12-17T01:50:23;-9.40;99.90
16736;DHT22;17990;49.548;9.730;2022-12-17T01:53:10;-9.40;99.90
16736;DHT22;17990;49.548;9.730;2022-12-17T01:55:55;-9.40;99.90
16736;DHT22;17990;49.548;9.730;2022-12-17T01:58:40;-9.40;99.90
16736;DHT22;17990;49.548;9.730;2022-12-17T02:01:25;-9.40;99.90
16736;DHT22;17990;49.548;9.730;2022-12-17T02:04:10;-9.40;99.90
16736;DHT22;17990;49.548;9.730;2022-12-17T02:07:17;-9.40;99.90
16736;DHT22;17990;49.548;9.730;2022-12-17T02:10:19;-9.40;99.90
16736;DHT22;17990;49.548;9.730;2022-12-17T02:13:12;-9.50;99.90
16736;DHT22;17990;49.548;9.730;2022-12-17T02:16:03;-9.50;99.90
16736;DHT22;17990;49.548;9.730;2022-12-17T02:18:55;-9.60;99.90
16736;DHT22;17990;49.548;9.730;2022-12-17T02:21:43;-9.60;99.90
16736;DHT22;17990;49.548;9.730;2022-12-17T02:24:36;-9.60;99.90
16736;DHT22;17990;49.548;9.730;2022-12-17T02:27:26;-9.60;99.90
16736;DHT22;17990;49.548;9.730;2022-12-17T02:30:11;-9.60;99.90
16736;DHT22;17990;49.548;9.730;2022-12-17T02:32:56;-9.70;99.90
16736;DHT22;17990;49.548;9.730;2022-12-17T02:35:40;-9.70;99.90
16736;DHT22;17990;49.548;9.730;2022-12-17T02:38:27;-9.70;99.90
16736;DHT22;17990;49.548;9.730;2022-12-17T02:41:15;-9.70;99.90
16736;DHT22;17990;49.548;9.730;2022-12-17T02:44:03;-9.70;99.90
16736;DHT22;17990;49.548;9.730;2022-12-17T02:46:50;-9.70;99.90
16736;DHT22;17990;49.548;9.730;2022-12-17T02:49:35;-9.80;99.90
16736;DHT22;17990;49.548;9.730;2022-12-17T02:52:20;-9.80;99.90
16736;DHT22;17990;49.548;9.730;2022-12-17T02:55:17;-9.80;99.90
16736;DHT22;17990;49.548;9.730;2022-12-17T02:58:01;-9.80;99.90
16736;DHT22;17990;49.548;9.730;2022-12-17T03:00:47;-9.90;99.90
16736;DHT22;17990;49.548;9.730;2022-12-17T03:03:31;-9.90;99.90
16736;DHT22;17990;49.548;9.730;2022-12-17T03:06:17;-9.90;99.90
16736;DHT22;17990;49.548;9.730;2022-12-17T03:09:01;-10.00;99.90
16736;DHT22;17990;49.548;9.730;2022-12-17T03:11:46;-10.00;99.90
16736;DHT22;17990;49.548;9.730;2022-12-17T03:14:42;-10.00;99.90
16736;DHT22;17990;49.548;9.730;2022-12-17T03:17:27;-10.00;99.90
16736;DHT22;17990;49.548;9.730;2022-12-17T03:20:12;-10.00;99.90
16736;DHT22;17990;49.548;9.730;2022-12-17T03:23:01;-10.10;99.90
16736;DHT22;17990;49.548;9.730;2022-12-17T03:25:46;-10.10;99.90
16736;DHT22;17990;49.548;9.730;2022-12-17T03:28:31;-10.10;99.90
16736;DHT22;17990;49.548;9.730;2022-12-17T03:31:15;-10.10;99.90
16736;DHT22;17990;49.548;9.730;2022-12-17T03:34:00;-10.10;99.90
16736;DHT22;17990;49.548;9.730;2022-12-17T03:36:45;-10.00;99.90
16736;DHT22;17990;49.548;9.730;2022-12-17T03:39:30;-10.00;99.90
16736;DHT22;17990;49.548;9.730;2022-12-17T03:42:14;-10.10;99.90
16736;DHT22;17990;49.548;9.730;2022-12-17T03:44:59;-10.10;99.90
16736;DHT22;17990;49.548;9.730;2022-12-17T03:47:44;-10.10;99.90
16736;DHT22;17990;49.548;9.730;2022-12-17T03:50:29;-10.10;99.90
16736;DHT22;17990;49.548;9.730;2022-12-17T03:53:14;-10.10;99.90
16736;DHT22;17990;49.548;9.730;2022-12-17T03:55:59;-10.20;99.90
16736;DHT22;17990;49.548;9.730;2022-12-17T03:58:43;-10.20;99.90
16736;DHT22;17990;49.548;9.730;2022-12-17T04:01:29;-10.20;99.90
16736;DHT22;17990;49.548;9.730;2022-12-17T04:04:13;-10.20;99.90
16736;DHT22;17990;49.548;9.730;2022-12-17T04:06:59;-10.20;99.90
16736;DHT22;17990;49.548;9.730;2022-12-17T04:09:44;-10.30;99.90
16736;DHT22;17990;49.548;9.730;2022-12-17T04:12:28;-10.30;99.90
16736;DHT22;17990;49.548;9.730;2022-12-17T04:15:13;-10.30;99.90
16736;DHT22;17990;49.548;9.730;2022-12-17T04:17:58;-10.40;99.90
16736;DHT22;17990;49.548;9.730;2022-12-17T04:20:42;-10.40;99.90
16736;DHT22;17990;49.548;9.730;2022-12-17T04:23:28;-10.40;99.90
16736;DHT22;17990;49.548;9.730;2022-12-17T04:26:13;-10.40;99.90
16736;DHT22;17990;49.548;9.730;2022-12-17T04:29:05;-10.40;99.90
16736;DHT22;17990;49.548;9.730;2022-12-17T04:32:04;-10.40;99.90
16736;DHT22;17990;49.548;9.730;2022-12-17T04:34:49;-10.40;99.90
16736;DHT22;17990;49.548;9.730;2022-12-17T04:37:34;-10.30;99.90
16736;DHT22;17990;49.548;9.730;2022-12-17T04:40:19;-10.40;99.90
16736;DHT22;17990;49.548;9.730;2022-12-17T04:43:08;-10.40;99.90
16736;DHT22;17990;49.548;9.730;2022-12-17T04:45:53;-10.40;99.90
16736;DHT22;17990;49.548;9.730;2022-12-17T04:48:38;-10.40;99.90
16736;DHT22;17990;49.548;9.730;2022-12-17T04:51:23;-10.40;99.90
16736;DHT22;17990;49.548;9.730;2022-12-17T04:54:07;-10.40;99.90
16736;DHT22;17990;49.548;9.730;2022-12-17T04:56:53;-10.40;99.90
16736;DHT22;17990;49.548;9.730;2022-12-17T04:59:46;-10.50;99.90
16736;DHT22;17990;49.548;9.730;2022-12-17T05:02:31;-10.60;99.90
16736;DHT22;17990;49.548;9.730;2022-12-17T05:05:15;-10.60;99.90
16736;DHT22;17990;49.548;9.730;2022-12-17T05:08:00;-10.60;99.90
16736;DHT22;17990;49.548;9.730;2022-12-17T05:10:45;-10.60;99.90
16736;DHT22;17990;49.548;9.730;2022-12-17T05:13:31;-10.60;99.90
16736;DHT22;17990;49.548;9.730;2022-12-17T05:16:15;-10.60;99.90
16736;DHT22;17990;49.548;9.730;2022-12-17T05:18:56;-10.60;99.90
16736;DHT22;17990;49.548;9.730;2022-12-17T05:21:41;-10.50;99.90
16736;DHT22;17990;49.548;9.730;2022-12-17T05:24:25;-10.50;99.90
16736;DHT22;17990;49.548;9.730;2022-12-17T05:27:10;-10.50;99.90
16736;DHT22;17990;49.548;9.730;2022-12-17T05:29:56;-10.50;99.90
16736;DHT22;17990;49.548;9.730;2022-12-17T05:32:41;-10.50;99.90
16736;DHT22;17990;49.548;9.730;2022-12-17T05:35:25;-10.50;99.90
16736;DHT22;17990;49.548;9.730;2022-12-17T05:38:10;-10.40;99.90
16736;DHT22;17990;49.548;9.730;2022-12-17T05:40:55;-10.50;99.90
16736;DHT22;17990;49.548;9.730;2022-12-17T05:43:40;-10.50;99.90
16736;DHT22;17990;49.548;9.730;2022-12-17T05:46:26;-10.60;99.90
16736;DHT22;17990;49.548;9.730;2022-12-17T05:49:11;-10.60;99.90
16736;DHT22;17990;49.548;9.730;2022-12-17T05:51:56;-10.70;99.90
16736;DHT22;17990;49.548;9.730;2022-12-17T05:54:41;-10.70;99.90
16736;DHT22;17990;49.548;9.730;2022-12-17T05:57:25;-10.60;99.90
16736;DHT22;17990;49.548;9.730;2022-12-17T06:00:11;-10.70;99.90
16736;DHT22;17990;49.548;9.730;2022-12-17T06:02:59;-10.80;99.90
16736;DHT22;17990;49.548;9.730;2022-12-17T06:05:44;-10.80;99.90
16736;DHT22;17990;49.548;9.730;2022-12-17T06:08:28;-10.90;99.90
16736;DHT22;17990;49.548;9.730;2022-12-17T06:11:13;-10.80;99.90
16736;DHT22;17990;49.548;9.730;2022-12-17T06:13:58;-10.80;99.90
16736;DHT22;17990;49.548;9.730;2022-12-17T06:16:43;-10.80;99.90
16736;DHT22;17990;49.548;9.730;2022-12-17T06:19:28;-10.80;99.90
16736;DHT22;17990;49.548;9.730;2022-12-17T06:22:13;-10.80;99.90
16736;DHT22;17990;49.548;9.730;2022-12-17T06:24:58;-10.80;99.90
16736;DHT22;17990;49.548;9.730;2022-12-17T06:27:42;-10.70;99.90
16736;DHT22;17990;49.548;9.730;2022-12-17T06:30:27;-10.80;99.90
16736;DHT22;17990;49.548;9.730;2022-12-17T06:33:12;-10.80;99.90
16736;DHT22;17990;49.548;9.730;2022-12-17T06:35:58;-10.80;99.90
16736;DHT22;17990;49.548;9.730;2022-12-17T06:38:43;-10.90;99.90
16736;DHT22;17990;49.548;9.730;2022-12-17T06:41:28;-10.90;99.90
16736;DHT22;17990;49.548;9.730;2022-12-17T06:44:12;-10.90;99.90
16736;DHT22;17990;49.548;9.730;2022-12-17T06:46:57;-10.90;99.90
16736;DHT22;17990;49.548;9.730;2022-12-17T06:49:41;-10.90;99.90
16736;DHT22;17990;49.548;9.730;2022-12-17T06:52:27;-10.90;99.90
16736;DHT22;17990;49.548;9.730;2022-12-17T06:55:12;-10.90;99.90
16736;DHT22;17990;49.548;9.730;2022-12-17T06:57:57;-10.90;99.90
16736;DHT22;17990;49.548;9.730;2022-12-17T07:00:42;-10.90;99.90
16736;DHT22;17990;49.548;9.730;2022-12-17T07:03:26;-10.90;99.90
16736;DHT22;17990;49.548;9.730;2022-12-17T07:06:11;-10.90;99.90
16736;DHT22;17990;49.548;9.730;2022-12-17T07:08:57;-10.90;99.90
16736;DHT22;17990;49.548;9.730;2022-12-17T07:11:42;-10.90;99.90
16736;DHT22;17990;49.548;9.730;2022-12-17T07:14:26;-10.90;99.90
16736;DHT22;17990;49.548;9.730;2022-12-17T07:17:11;-10.90;99.90
16736;DHT22;17990;49.548;9.730;2022-12-17T07:19:56;-10.90;99.90
16736;DHT22;17990;49.548;9.730;2022-12-17T07:22:40;-10.90;99.90
16736;DHT22;17990;49.548;9.730;2022-12-17T07:25:26;-10.90;99.90
16736;DHT22;17990;49.548;9.730;2022-12-17T07:28:19;-10.90;99.90
16736;DHT22;17990;49.548;9.730;2022-12-17T07:31:04;-10.90;99.90
16736;DHT22;17990;49.548;9.730;2022-12-17T07:33:48;-10.80;99.90
16736;DHT22;17990;49.548;9.730;2022-12-17T07:36:33;-10.70;99.90
16736;DHT22;17990;49.548;9.730;2022-12-17T07:39:17;-10.70;99.90
16736;DHT22;17990;49.548;9.730;2022-12-17T07:42:03;-10.60;99.90
16736;DHT22;17990;49.548;9.730;2022-12-17T07:44:48;-10.60;99.90
16736;DHT22;17990;49.548;9.730;2022-12-17T07:47:33;-10.60;99.90
16736;DHT22;17990;49.548;9.730;2022-12-17T07:50:17;-10.50;99.90
16736;DHT22;17990;49.548;9.730;2022-12-17T07:53:03;-10.50;99.90
16736;DHT22;17990;49.548;9.730;2022-12-17T07:55:48;-10.40;99.90
16736;DHT22;17990;49.548;9.730;2022-12-17T07:58:34;-10.30;99.90
16736;DHT22;17990;49.548;9.730;2022-12-17T08:01:19;-10.20;99.90
16736;DHT22;17990;49.548;9.730;2022-12-17T08:04:03;-10.10;99.90
16736;DHT22;17990;49.548;9.730;2022-12-17T08:06:49;-9.90;99.90
16736;DHT22;17990;49.548;9.730;2022-12-17T08:09:34;-9.70;99.90
16736;DHT22;17990;49.548;9.730;2022-12-17T08:12:27;-9.60;99.90
16736;DHT22;17990;49.548;9.730;2022-12-17T08:15:12;-9.60;99.90
16736;DHT22;17990;49.548;9.730;2022-12-17T08:18:00;-9.50;99.90
16736;DHT22;17990;49.548;9.730;2022-12-17T08:20:44;-9.50;99.90
16736;DHT22;17990;49.548;9.730;2022-12-17T08:23:29;-9.40;99.90
16736;DHT22;17990;49.548;9.730;2022-12-17T08:26:14;-9.50;99.90
16736;DHT22;17990;49.548;9.730;2022-12-17T08:28:58;-9.40;99.90
16736;DHT22;17990;49.548;9.730;2022-12-17T08:31:44;-9.40;99.90
16736;DHT22;17990;49.548;9.730;2022-12-17T08:34:29;-9.30;99.90
16736;DHT22;17990;49.548;9.730;2022-12-17T08:37:13;-9.30;99.90
16736;DHT22;17990;49.548;9.730;2022-12-17T08:39:58;-9.30;99.90
16736;DHT22;17990;49.548;9.730;2022-12-17T08:42:43;-9.20;99.90
16736;DHT22;17990;49.548;9.730;2022-12-17T08:45:27;-9.10;99.90
16736;DHT22;17990;49.548;9.730;2022-12-17T08:48:13;-9.00;99.90
16736;DHT22;17990;49.548;9.730;2022-12-17T08:50:58;-9.00;99.90
16736;DHT22;17990;49.548;9.730;2022-12-17T08:53:43;-9.00;99.90
16736;DHT22;17990;49.548;9.730;2022-12-17T08:56:27;-8.90;99.90
16736;DHT22;17990;49.548;9.730;2022-12-17T08:59:12;-8.80;99.90
16736;DHT22;17990;49.548;9.730;2022-12-17T09:01:56;-8.70;99.90
16736;DHT22;17990;49.548;9.730;2022-12-17T09:04:43;-8.60;99.90
16736;DHT22;17990;49.548;9.730;2022-12-17T09:07:27;-8.60;99.90
16736;DHT22;17990;49.548;9.730;2022-12-17T09:10:12;-8.60;99.90
16736;DHT22;17990;49.548;9.730;2022-12-17T09:13:02;-8.40;99.90
16736;DHT22;17990;49.548;9.730;2022-12-17T09:15:51;-8.30;99.90
16736;DHT22;17990;49.548;9.730;2022-12-17T09:18:36;-8.30;99.90
16736;DHT22;17990;49.548;9.730;2022-12-17T09:21:22;-8.30;99.90
16736;DHT22;17990;49.548;9.730;2022-12-17T09:24:06;-8.20;99.90
16736;DHT22;17990;49.548;9.730;2022-12-17T09:26:52;-8.10;99.90
16736;DHT22;17990;49.548;9.730;2022-12-17T09:29:37;-8.00;99.90
16736;DHT22;17990;49.548;9.730;2022-12-17T09:32:22;-7.90;99.90
16736;DHT22;17990;49.548;9.730;2022-12-17T09:35:07;-7.80;99.90
16736;DHT22;17990;49.548;9.730;2022-12-17T09:37:53;-7.70;99.90
16736;DHT22;17990;49.548;9.730;2022-12-17T09:40:39;-7.60;99.90
16736;DHT22;17990;49.548;9.730;2022-12-17T09:43:32;-7.50;99.90
16736;DHT22;17990;49.548;9.730;2022-12-17T09:46:25;-7.70;99.90
16736;DHT22;17990;49.548;9.730;2022-12-17T09:49:29;-7.80;99.90
16736;DHT22;17990;49.548;9.730;2022-12-17T09:52:27;-7.70;99.90
16736;DHT22;17990;49.548;9.730;2022-12-17T09:55:20;-7.70;99.90
16736;DHT22;17990;49.548;9.730;2022-12-17T09:58:13;-7.60;99.90
16736;DHT22;17990;49.548;9.730;2022-12-17T10:01:03;-7.60;99.90
16736;DHT22;17990;49.548;9.730;2022-12-17T10:03:48;-7.50;99.90
16736;DHT22;17990;49.548;9.730;2022-12-17T10:06:34;-7.30;99.90
16736;DHT22;17990;49.548;9.730;2022-12-17T10:09:19;-7.10;99.90
16736;DHT22;17990;49.548;9.730;2022-12-17T10:12:12;-7.00;99.90
16736;DHT22;17990;49.548;9.730;2022-12-17T10:14:57;-6.80;99.90
16736;DHT22;17990;49.548;9.730;2022-12-17T10:17:41;-6.80;99.90
16736;DHT22;17990;49.548;9.730;2022-12-17T10:20:31;-6.80;99.90
16736;DHT22;17990;49.548;9.730;2022-12-17T10:23:25;-6.70;99.90
16736;DHT22;17990;49.548;9.730;2022-12-17T10:26:15;-6.50;99.90
16736;DHT22;17990;49.548;9.730;2022-12-17T10:29:09;-6.40;99.90
16736;DHT22;17990;49.548;9.730;2022-12-17T10:31:59;-6.20;99.90
16736;DHT22;17990;49.548;9.730;2022-12-17T10:34:52;-6.20;99.90
16736;DHT22;17990;49.548;9.730;2022-12-17T10:37:37;-6.10;99.90
16736;DHT22;17990;49.548;9.730;2022-12-17T10:40:24;-6.00;99.90
16736;DHT22;17990;49.548;9.730;2022-12-17T10:43:28;-5.90;99.90
16736;DHT22;17990;49.548;9.730;2022-12-17T10:46:26;-5.90;99.90
16736;DHT22;17990;49.548;9.730;2022-12-17T10:49:13;-5.90;99.90
16736;DHT22;17990;49.548;9.730;2022-12-17T10:52:01;-5.70;99.90
16736;DHT22;17990;49.548;9.730;2022-12-17T10:54:55;-5.50;99.90
16736;DHT22;17990;49.548;9.730;2022-12-17T10:58:02;-5.40;99.90
16736;DHT22;17990;49.548;9.730;2022-12-17T11:00:47;-5.30;99.90
16736;DHT22;17990;49.548;9.730;2022-12-17T11:03:38;-5.30;99.90
16736;DHT22;17990;49.548;9.730;2022-12-17T11:06:34;-5.40;99.90
16736;DHT22;17990;49.548;9.730;2022-12-17T11:09:29;-5.30;99.90
16736;DHT22;17990;49.548;9.730;2022-12-17T11:12:17;-5.20;99.90
16736;DHT22;17990;49.548;9.730;2022-12-17T11:15:14;-5.20;99.90
16736;DHT22;17990;49.548;9.730;2022-12-17T11:18:01;-5.10;99.90
16736;DHT22;17990;49.548;9.730;2022-12-17T11:20:53;-4.80;99.90
16736;DHT22;17990;49.548;9.730;2022-12-17T11:23:41;-4.60;99.90
16736;DHT22;17990;49.548;9.730;2022-12-17T11:26:30;-4.40;99.90
16736;DHT22;17990;49.548;9.730;2022-12-17T11:29:15;-4.20;99.90
16736;DHT22;17990;49.548;9.730;2022-12-17T11:32:25;-4.20;99.90
16736;DHT22;17990;49.548;9.730;2022-12-17T11:35:19;-4.30;99.90
16736;DHT22;17990;49.548;9.730;2022-12-17T11:38:16;-4.20;99.90
16736;DHT22;17990;49.548;9.730;2022-12-17T11:41:14;-4.10;99.90
16736;DHT22;17990;49.548;9.730;2022-12-17T11:44:13;-4.00;99.90
16736;DHT22;17990;49.548;9.730;2022-12-17T11:47:14;-3.80;99.90
16736;DHT22;17990;49.548;9.730;2022-12-17T11:50:12;-3.70;99.90
16736;DHT22;17990;49.548;9.730;2022-12-17T11:53:14;-3.80;99.90
16736;DHT22;17990;49.548;9.730;2022-12-17T11:56:11;-3.80;99.90
16736;DHT22;17990;49.548;9.730;2022-12-17T11:59:04;-3.70;99.90
16736;DHT22;17990;49.548;9.730;2022-12-17T12:02:00;-3.50;99.90
16736;DHT22;17990;49.548;9.730;2022-12-17T12:05:07;-3.30;99.90
16736;DHT22;17990;49.548;9.730;2022-12-17T12:08:06;-3.20;99.90
16736;DHT22;17990;49.548;9.730;2022-12-17T12:11:02;-3.00;99.90
16736;DHT22;17990;49.548;9.730;2022-12-17T12:13:56;-2.90;99.90
16736;DHT22;17990;49.548;9.730;2022-12-17T12:16:51;-2.70;99.90
16736;DHT22;17990;49.548;9.730;2022-12-17T12:19:45;-2.80;99.90
16736;DHT22;17990;49.548;9.730;2022-12-17T12:22:40;-2.90;99.90
16736;DHT22;17990;49.548;9.730;2022-12-17T12:25:35;-2.90;99.90
16736;DHT22;17990;49.548;9.730;2022-12-17T12:28:38;-3.00;99.90
16736;DHT22;17990;49.548;9.730;2022-12-17T12:31:30;-2.90;99.90
16736;DHT22;17990;49.548;9.730;2022-12-17T12:34:24;-2.80;99.90
16736;DHT22;17990;49.548;9.730;2022-12-17T12:37:15;-2.70;99.90
16736;DHT22;17990;49.548;9.730;2022-12-17T12:40:06;-2.70;99.90
16736;DHT22;17990;49.548;9.730;2022-12-17T12:43:01;-2.70;99.90
16736;DHT22;17990;49.548;9.730;2022-12-17T12:45:58;-2.70;99.90
16736;DHT22;17990;49.548;9.730;2022-12-17T12:48:51;-2.50;99.90
16736;DHT22;17990;49.548;9.730;2022-12-17T12:51:42;-2.30;99.90
16736;DHT22;17990;49.548;9.730;2022-12-17T12:54:29;-2.20;99.90
16736;DHT22;17990;49.548;9.730;2022-12-17T12:57:28;-2.10;99.90
16736;DHT22;17990;49.548;9.730;2022-12-17T13:00:27;-2.10;99.90
16736;DHT22;17990;49.548;9.730;2022-12-17T13:03:22;-2.00;99.90
16736;DHT22;17990;49.548;9.730;2022-12-17T13:06:09;-1.90;99.90
16736;DHT22;17990;49.548;9.730;2022-12-17T13:08:37;-1.90;99.90
16736;DHT22;17990;49.548;9.730;2022-12-17T13:11:26;-1.90;99.90
16736;DHT22;17990;49.548;9.730;2022-12-17T13:13:58;-1.80;99.90
16736;DHT22;17990;49.548;9.730;2022-12-17T13:16:48;-1.80;99.90
16736;DHT22;17990;49.548;9.730;2022-12-17T13:19:31;-1.80;99.90
16736;DHT22;17990;49.548;9.730;2022-12-17T13:22:22;-1.80;99.90
16736;DHT22;17990;49.548;9.730;2022-12-17T13:24:56;-1.90;99.90
16736;DHT22;17990;49.548;9.730;2022-12-17T13:27:40;-1.90;99.90
16736;DHT22;17990;49.548;9.730;2022-12-17T13:30:19;-1.90;99.90
16736;DHT22;17990;49.548;9.730;2022-12-17T13:32:54;-1.90;99.90
16736;DHT22;17990;49.548;9.730;2022-12-17T13:35:38;-1.80;99.90
16736;DHT22;17990;49.548;9.730;2022-12-17T13:38:14;-1.80;99.90
16736;DHT22;17990;49.548;9.730;2022-12-17T13:40:53;-1.80;99.90
16736;DHT22;17990;49.548;9.730;2022-12-17T13:43:29;-1.70;99.90
16736;DHT22;17990;49.548;9.730;2022-12-17T13:45:58;-1.70;99.90
16736;DHT22;17990;49.548;9.730;2022-12-17T13:48:27;-1.70;99.90
16736;DHT22;17990;49.548;9.730;2022-12-17T13:50:58;-1.70;99.90
16736;DHT22;17990;49.548;9.730;2022-12-17T13:53:27;-1.70;99.90
16736;DHT22;17990;49.548;9.730;2022-12-17T13:55:58;-1.70;99.90
16736;DHT22;17990;49.548;9.730;2022-12-17T13:58:27;-1.70;99.90
16736;DHT22;17990;49.548;9.730;2022-12-17T14:01:06;-1.70;99.90
16736;DHT22;17990;49.548;9.730;2022-12-17T14:03:34;-1.70;99.90
16736;DHT22;17990;49.548;9.730;2022-12-17T14:06:03;-1.70;99.90
16736;DHT22;17990;49.548;9.730;2022-12-17T14:08:34;-1.70;99.90
16736;DHT22;17990;49.548;9.730;2022-12-17T14:11:01;-1.70;99.90
16736;DHT22;17990;49.548;9.730;2022-12-17T14:13:47;-1.70;99.90
16736;DHT22;17990;49.548;9.730;2022-12-17T14:16:15;-1.80;99.90
16736;DHT22;17990;49.548;9.730;2022-12-17T14:18:45;-1.80;99.90
16736;DHT22;17990;49.548;9.730;2022-12-17T14:21:14;-1.90;99.90
16736;DHT22;17990;49.548;9.730;2022-12-17T14:23:41;-2.00;99.90
16736;DHT22;17990;49.548;9.730;2022-12-17T14:26:09;-2.10;99.90
16736;DHT22;17990;49.548;9.730;2022-12-17T14:28:44;-2.10;99.90
16736;DHT22;17990;49.548;9.730;2022-12-17T14:31:18;-2.10;99.90
16736;DHT22;17990;49.548;9.730;2022-12-17T14:33:46;-2.20;99.90
16736;DHT22;17990;49.548;9.730;2022-12-17T14:36:20;-2.30;99.90
16736;DHT22;17990;49.548;9.730;2022-12-17T14:38:52;-2.40;99.90
16736;DHT22;17990;49.548;9.730;2022-12-17T14:41:19;-2.40;99.90
16736;DHT22;17990;49.548;9.730;2022-12-17T14:44:17;-2.60;99.90
16736;DHT22;17990;49.548;9.730;2022-12-17T14:46:46;-2.70;99.90
16736;DHT22;17990;49.548;9.730;2022-12-17T14:49:17;-2.80;99.90
16736;DHT22;17990;49.548;9.730;2022-12-17T14:51:47;-2.90;99.90
16736;DHT22;17990;49.548;9.730;2022-12-17T14:54:25;-3.10;99.90
16736;DHT22;17990;49.548;9.730;2022-12-17T14:56:56;-3.10;99.90
16736;DHT22;17990;49.548;9.730;2022-12-17T14:59:29;-3.20;99.90
16736;DHT22;17990;49.548;9.730;2022-12-17T15:02:00;-3.30;99.90
16736;DHT22;17990;49.548;9.730;2022-12-17T15:04:29;-3.30;99.90
16736;DHT22;17990;49.548;9.730;2022-12-17T15:06:58;-3.40;99.90
16736;DHT22;17990;49.548;9.730;2022-12-17T15:09:25;-3.50;99.90
16736;DHT22;17990;49.548;9.730;2022-12-17T15:11:52;-3.60;99.90
16736;DHT22;17990;49.548;9.730;2022-12-17T15:14:19;-3.60;99.90
16736;DHT22;17990;49.548;9.730;2022-12-17T15:16:46;-3.70;99.90
16736;DHT22;17990;49.548;9.730;2022-12-17T15:19:13;-3.80;99.90
16736;DHT22;17990;49.548;9.730;2022-12-17T15:21:40;-3.80;99.90
16736;DHT22;17990;49.548;9.730;2022-12-17T15:24:14;-3.90;99.90
16736;DHT22;17990;49.548;9.730;2022-12-17T15:26:44;-3.90;99.90
16736;DHT22;17990;49.548;9.730;2022-12-17T15:29:11;-4.00;99.90
16736;DHT22;17990;49.548;9.730;2022-12-17T15:31:38;-4.00;99.90
16736;DHT22;17990;49.548;9.730;2022-12-17T15:34:05;-4.10;99.90
16736;DHT22;17990;49.548;9.730;2022-12-17T15:36:32;-4.20;99.90
16736;DHT22;17990;49.548;9.730;2022-12-17T15:38:59;-4.30;99.90
16736;DHT22;17990;49.548;9.730;2022-12-17T15:41:27;-4.40;99.90
16736;DHT22;17990;49.548;9.730;2022-12-17T15:44:12;-4.40;99.90
16736;DHT22;17990;49.548;9.730;2022-12-17T15:46:39;-4.60;99.90
16736;DHT22;17990;49.548;9.730;2022-12-17T15:49:06;-4.70;99.90
16736;DHT22;17990;49.548;9.730;2022-12-17T15:51:33;-4.80;99.90
16736;DHT22;17990;49.548;9.730;2022-12-17T15:54:00;-4.80;99.90
16736;DHT22;17990;49.548;9.730;2022-12-17T15:56:28;-4.80;99.90
16736;DHT22;17990;49.548;9.730;2022-12-17T15:58:55;-4.90;99.90
16736;DHT22;17990;49.548;9.730;2022-12-17T16:01:23;-5.00;99.90
16736;DHT22;17990;49.548;9.730;2022-12-17T16:03:50;-5.10;99.90
16736;DHT22;17990;49.548;9.730;2022-12-17T16:06:17;-5.30;99.90
16736;DHT22;17990;49.548;9.730;2022-12-17T16:08:44;-5.30;99.90
16736;DHT22;17990;49.548;9.730;2022-12-17T16:11:12;-5.40;99.90
16736;DHT22;17990;49.548;9.730;2022-12-17T16:13:41;-5.50;99.90
16736;DHT22;17990;49.548;9.730;2022-12-17T16:16:09;-5.60;99.90
16736;DHT22;17990;49.548;9.730;2022-12-17T16:18:36;-5.60;99.90
16736;DHT22;17990;49.548;9.730;2022-12-17T16:21:05;-5.70;99.90
16736;DHT22;17990;49.548;9.730;2022-12-17T16:23:33;-5.70;99.90
16736;DHT22;17990;49.548;9.730;2022-12-17T16:26:02;-5.80;99.90
16736;DHT22;17990;49.548;9.730;2022-12-17T16:28:34;-5.90;99.90
16736;DHT22;17990;49.548;9.730;2022-12-17T16:31:05;-6.00;99.90
16736;DHT22;17990;49.548;9.730;2022-12-17T16:33:35;-6.10;99.90
16736;DHT22;17990;49.548;9.730;2022-12-17T16:36:03;-6.20;99.90
16736;DHT22;17990;49.548;9.730;2022-12-17T16:38:32;-6.20;99.90
16736;DHT22;17990;49.548;9.730;2022-12-17T16:41:01;-6.20;99.90
16736;DHT22;17990;49.548;9.730;2022-12-17T16:43:32;-6.20;99.90
16736;DHT22;17990;49.548;9.730;2022-12-17T16:46:00;-6.20;99.90
16736;DHT22;17990;49.548;9.730;2022-12-17T16:48:35;-6.30;99.90
16736;DHT22;17990;49.548;9.730;2022-12-17T16:51:14;-6.30;99.90
16736;DHT22;17990;49.548;9.730;2022-12-17T16:53:42;-6.40;99.90
16736;DHT22;17990;49.548;9.730;2022-12-17T16:56:14;-6.40;99.90
16736;DHT22;17990;49.548;9.730;2022-12-17T16:58:41;-6.40;99.90
16736;DHT22;17990;49.548;9.730;2022-12-17T17:01:10;-6.50;99.90
16736;DHT22;17990;49.548;9.730;2022-12-17T17:03:38;-6.50;99.90
16736;DHT22;17990;49.548;9.730;2022-12-17T17:06:06;-6.60;99.90
16736;DHT22;17990;49.548;9.730;2022-12-17T17:08:34;-6.60;99.90
16736;DHT22;17990;49.548;9.730;2022-12-17T17:11:07;-6.70;99.90